CYOJ

Details ICAO CYOJ (YOJ)
Name HIGH LEVEL
Region Canada
Timezone America/Edmonton (UTC-6.0)
Plans Departing 2
Arriving 2
Stats Elevation 1,110 ft / 338 m (AMSL)
Location 58.621387° -117.164725°
Runways 1
Magnetic Variation 16.938° E
Sunrise 2018-05-20 11:11:10 UTC / 2018-05-20 05:11:10 Local
Sunset 2018-05-21 04:22:05 UTC / 2018-05-20 22:22:05 Local
Advertisement - Login to hide

Runways

ID Width Length Bearing (true) Bearing (mag) Surface Threshold Offset Overrun Length
13 150 ft / 46 m 4,982 ft / 1,519 m 153.56° 136.62° Asphalt 0 ft / 0 m 0 ft / 0 m
31 150 ft / 46 m 4,982 ft / 1,519 m 333.57° 316.63° Asphalt 0 ft / 0 m 0 ft / 0 m

Map

Weather


0- 5 10 15 20 25 30 35+ Temperature / ° C

Clouds and Precipitation
Forecast for 2018-05-21 00:00 UTC. Updated 28 minutes ago

Ground ~20,000 ft ~40,000 ft Winds

METAR

CYOJ 202300Z 08007KT 020V160 15SM FEW100 SCT260 27/02 A2966 RMK AC1CI4 AC TR SLP053 DENSITY ALT 3000FT

TAF

TAF CYOJ 201838Z 2019/2107 VRB03KT P6SM FEW140 BKN200 BECMG 2019/2021 12006KT FM210400 04005KT P6SM SKC RMK NXT FCST BY 210100Z

Frequencies

Tower 123.25 MHz MF HIGH LEVEL RDO
Warning: Do not use this data for real-world aviation or navigation. No guarantee of current accuracy is given.